Hume, CA (93628)

6:31 PM PDT on October 24, 2014 (GMT -0700)
Hume Lake | Change Station
CLOSE
Current Station
Personal Weather Station
Location: Hume, CA
Elevation: 5240 ft
Nearby Weather Stations

Elev 5240 ft 36.79 °N, 118.91 °W | Updated 3 seconds ago

Clear
Clear
53.7 °F
Feels Like 53.7 °F
N
0.0
Wind Variable Wind from WSW
Gusts 1.0 mph

Today
High -- | Low -- °F
--% Chance of Precip.
Yesterday
High -- | Low -- °F
Precip. -- in
7:11 AM 6:07 PM
New Moon, 1% visible
Pressure 29.88 in
Visibility 10.0 miles
Clouds Clear
Dew Point 31 °F
Humidity 42%
Rainfall 0.00 in
Snow Depth Not available.
UV 0 out of 12
Pollen 2.30 out of 12
Air Quality Not available.
Flu Activity Sporadic
METAR KBIH 250056Z AUTO 15018G25KT 10SM CLR 24/M07 A2996 RMK AO2 PK WND 16029/0028 SLP117 T02391072

More Conditions Fewer Conditions

Pressure 29.88 in
Visibility 10.0 miles
Clouds Clear
Dew Point 31 °F
Humidity 42%
Rainfall 0.00 in
Snow Depth Not available.
UV 0 out of 12
Pollen 2.30 out of 12
Air Quality Not available.
Flu Activity Sporadic
METAR KBIH 250056Z AUTO 15018G25KT 10SM CLR 24/M07 A2996 RMK AO2 PK WND 16029/0028 SLP117 T02391072

More Conditions Fewer Conditions

10-Day Weather Forecast

Almanac

Astronomy

Oct. 24, 2014 Rise Set
Actual Time 7:11 AM PDT 6:07 PM PDT
Civil Twilight 6:45 AM PDT 6:33 PM PDT
Nautical Twilight 6:14 AM PDT 7:04 PM PDT
Astronomical Twilight 5:44 AM PDT 7:34 PM PDT
Moon 7:54 AM PDT (10/24) 6:52 PM PDT (10/24)
Length of Visible Light 11h 48m
Length of Day
10h 55m
Tomorrow will be 2m 10s shorter.
New Moon, 1% of the Moon is Illuminated
Today
New Moon
Oct 30
First Quarter
Nov 6
Full
Nov 14
Last Quarter
Nov 22
New

Today's Extremes

State Highs State Lows

Community

WunderPhotos

Upload Photos

1,764,749 photos uploaded!

WunderBlogs® & News

Nearby

Snow Depth

Station Depth Elevation
Leavitt Meadows 0 in 7200 ft
Summit Meadow 0 in 9122 ft
Echo Peak 0 in 7800 ft
Ward Creek #3 12 in 6750 ft
Adin Mountain 1 in 6200 ft

Earthquake Activity

City Distance Mag. Time & Date
Kettleman City, California 80 miles 2.5 9:08 AM PDT
2014-10-22
Minimum magnitude displayed is 2.5.

Coastal Water Temperatures

Place Temperature
No Stations Reporting

Nearby Weather Stations